createdAt,value
2019-04-11T00:00:35.289Z,4.00
2019-04-11T00:03:05.115Z,4.40
2019-04-11T00:05:34.930Z,4.35
2019-04-11T00:08:05.951Z,4.70
2019-04-11T00:10:35.844Z,4.33
2019-04-11T00:13:17.321Z,3.93
2019-04-11T00:15:37.084Z,3.63
2019-04-11T00:18:06.222Z,4.13
2019-04-11T00:20:36.101Z,4.23
2019-04-11T00:23:06.033Z,4.60
2019-04-11T00:25:35.781Z,4.33
2019-04-11T00:28:05.795Z,3.72
2019-04-11T00:30:34.584Z,4.40
2019-04-11T00:33:03.408Z,4.00
2019-04-11T00:35:33.490Z,4.37
2019-04-11T00:38:02.582Z,3.73
2019-04-11T00:40:31.311Z,4.60
2019-04-11T00:43:01.069Z,3.70
2019-04-11T00:45:29.971Z,4.53
2019-04-11T00:47:59.627Z,4.40
2019-04-11T00:50:30.132Z,4.20
2019-04-11T00:52:59.589Z,4.37
2019-04-11T00:55:29.342Z,4.43
2019-04-11T00:57:58.522Z,5.43
2019-04-11T01:00:27.342Z,4.50
2019-04-11T01:02:56.082Z,4.60
2019-04-11T01:05:25.613Z,3.73
2019-04-11T01:07:55.434Z,3.87
2019-04-11T01:10:25.091Z,4.30
2019-04-11T01:12:53.864Z,4.20
2019-04-11T01:15:24.182Z,4.97
2019-04-11T01:17:53.868Z,4.23
2019-04-11T01:20:23.828Z,4.37
2019-04-11T01:22:52.628Z,5.37
2019-04-11T01:25:22.183Z,4.70
2019-04-11T01:27:51.526Z,4.90
2019-04-11T01:30:23.313Z,4.50
2019-04-11T01:32:52.724Z,4.80
2019-04-11T01:35:22.135Z,5.13
2019-04-11T01:37:50.971Z,4.90
2019-04-11T01:40:19.739Z,4.53
2019-04-11T01:42:49.239Z,4.50
2019-04-11T01:45:19.686Z,4.90
2019-04-11T01:47:59.441Z,4.70
2019-04-11T01:50:29.835Z,5.43
2019-04-11T01:52:58.612Z,4.70
2019-04-11T01:55:28.248Z,4.77
2019-04-11T01:57:58.315Z,4.90
2019-04-11T02:03:08.758Z,4.90
2019-04-11T02:05:38.708Z,5.00
2019-04-11T02:08:07.462Z,5.40
2019-04-11T02:10:37.064Z,5.37
2019-04-11T02:13:06.318Z,5.40
2019-04-11T02:15:35.089Z,5.50
2019-04-11T02:18:03.877Z,5.00
2019-04-11T02:20:33.357Z,4.90
2019-04-11T02:23:04.634Z,6.17
2019-04-11T02:25:38.690Z,6.10
2019-04-11T02:28:08.592Z,5.70
2019-04-11T02:30:41.030Z,5.70
2019-04-11T02:33:11.701Z,5.70
2019-04-11T02:35:42.354Z,4.67
2019-04-11T02:38:12.423Z,5.87
2019-04-11T02:40:43.022Z,6.10
2019-04-11T02:43:13.305Z,5.50
2019-04-11T02:45:52.631Z,5.20
2019-04-11T02:48:13.776Z,5.47
2019-04-11T02:50:45.723Z,5.90
2019-04-11T02:53:14.870Z,5.13
2019-04-11T02:55:46.759Z,5.87
2019-04-11T02:58:16.715Z,5.90
2019-04-11T03:00:45.783Z,5.43
2019-04-11T03:03:15.251Z,5.20
2019-04-11T03:05:46.896Z,5.37
2019-04-11T03:08:19.247Z,5.30
2019-04-11T03:10:46.674Z,5.50
2019-04-11T03:13:16.843Z,5.60
2019-04-11T03:16:00.501Z,5.97
2019-04-11T03:18:39.171Z,4.77
2019-04-11T03:20:53.155Z,6.17
2019-04-11T03:23:20.904Z,6.03
2019-04-11T03:25:49.073Z,6.17
2019-04-11T03:28:23.125Z,5.67
2019-04-11T03:31:13.796Z,5.60
2019-04-11T03:36:54.043Z,6.97
2019-04-11T03:38:46.908Z,7.33
2019-04-11T03:41:17.353Z,6.50
2019-04-11T03:43:39.800Z,6.90
2019-04-11T03:46:14.296Z,10.28
2019-04-11T03:48:40.850Z,8.20
2019-04-11T03:51:00.070Z,6.40
2019-04-11T03:53:31.951Z,7.00
2019-04-11T03:56:01.679Z,7.33
2019-04-11T03:58:31.717Z,7.13
2019-04-11T04:01:05.562Z,6.47
2019-04-11T04:03:34.178Z,10.43
2019-04-11T04:06:04.593Z,9.33
2019-04-11T04:08:36.182Z,8.40
2019-04-11T04:11:08.619Z,7.65
2019-04-11T04:13:39.924Z,8.08
2019-04-11T04:16:26.075Z,10.05
2019-04-11T04:19:12.769Z,7.50
2019-04-11T04:21:50.960Z,7.80
2019-04-11T04:24:31.929Z,6.80
2019-04-11T04:27:01.675Z,7.67
2019-04-11T04:29:32.434Z,7.37
2019-04-11T04:32:02.868Z,10.07
2019-04-11T04:34:33.608Z,8.13
2019-04-11T04:37:03.573Z,7.70
2019-04-11T04:39:34.591Z,7.05
2019-04-11T04:42:11.074Z,7.20
2019-04-11T04:44:35.690Z,7.90
2019-04-11T04:47:15.302Z,7.97
2019-04-11T04:49:36.520Z,9.07
2019-04-11T04:52:07.833Z,8.30
2019-04-11T04:54:36.593Z,8.53
2019-04-11T04:57:08.568Z,7.67
2019-04-11T04:59:37.518Z,8.10
2019-04-11T05:02:08.206Z,9.93
2019-04-11T05:04:38.312Z,8.17
2019-04-11T05:07:07.441Z,8.33
2019-04-11T05:09:36.266Z,9.30
2019-04-11T05:12:05.455Z,9.40
2019-04-11T05:14:35.087Z,8.20
2019-04-11T05:17:06.608Z,9.25
2019-04-11T05:19:35.643Z,8.60
2019-04-11T05:22:06.471Z,8.40
2019-04-11T05:24:36.839Z,7.53
2019-04-11T05:27:06.365Z,6.90
2019-04-11T05:29:35.622Z,7.55
2019-04-11T05:32:05.280Z,7.50
2019-04-11T05:34:35.117Z,7.25
2019-04-11T05:37:05.213Z,7.23
2019-04-11T05:39:33.963Z,6.90
2019-04-11T05:42:03.158Z,6.30
2019-04-11T05:44:35.298Z,8.13
2019-04-11T05:47:05.587Z,5.83
2019-04-11T05:49:47.388Z,5.77
2019-04-11T05:52:16.218Z,7.10
2019-04-11T05:54:51.064Z,6.87
2019-04-11T05:57:23.787Z,6.57
2019-04-11T05:59:53.415Z,6.30
2019-04-11T06:02:35.320Z,6.93
2019-04-11T06:05:24.508Z,6.27
2019-04-11T06:08:02.337Z,7.40
2019-04-11T06:10:33.795Z,6.97
2019-04-11T06:13:07.952Z,6.80
2019-04-11T06:15:40.835Z,5.97
2019-04-11T06:18:17.904Z,7.17
2019-04-11T06:20:45.806Z,6.80
2019-04-11T06:23:32.559Z,6.90
2019-04-11T06:26:19.211Z,7.83
2019-04-11T06:28:49.617Z,7.17
2019-04-11T06:31:24.551Z,6.87
2019-04-11T06:33:55.014Z,6.87
2019-04-11T06:36:26.762Z,6.50
2019-04-11T06:39:03.162Z,7.53
2019-04-11T06:41:34.715Z,6.90
2019-04-11T06:44:21.932Z,6.80
2019-04-11T06:47:10.448Z,7.00
2019-04-11T06:49:40.833Z,7.28
2019-04-11T06:52:12.422Z,7.43
2019-04-11T06:54:43.649Z,6.80
2019-04-11T06:57:25.813Z,6.53
2019-04-11T06:59:54.549Z,7.40
2019-04-11T07:02:25.157Z,7.10
2019-04-11T07:05:04.632Z,7.70
2019-04-11T07:07:35.666Z,6.67
2019-04-11T07:10:06.329Z,6.17
2019-04-11T07:12:49.369Z,6.60
2019-04-11T07:15:23.544Z,7.07
2019-04-11T07:18:10.126Z,6.50
2019-04-11T07:20:52.573Z,6.53
2019-04-11T07:23:38.928Z,6.95
2019-04-11T07:26:12.253Z,7.03
2019-04-11T07:28:43.871Z,6.47
2019-04-11T07:31:21.592Z,6.62
2019-04-11T07:34:06.149Z,7.30
2019-04-11T07:39:47.352Z,6.90
2019-04-11T07:42:26.654Z,7.75
2019-04-11T07:45:20.903Z,6.30
2019-04-11T07:48:08.747Z,6.30
2019-04-11T07:50:37.702Z,7.30
2019-04-11T07:53:08.672Z,5.97
2019-04-11T07:55:39.256Z,7.30
2019-04-11T07:58:13.147Z,6.17
2019-04-11T08:00:47.452Z,6.10
2019-04-11T08:03:32.137Z,6.27
2019-04-11T08:06:18.569Z,6.03
2019-04-11T08:09:05.256Z,5.63
2019-04-11T08:11:35.905Z,6.65
2019-04-11T08:14:18.202Z,6.37
2019-04-11T08:17:04.970Z,6.90
2019-04-11T08:19:51.696Z,6.80
2019-04-11T08:22:30.831Z,7.10
2019-04-11T08:25:17.420Z,6.43
2019-04-11T08:28:01.339Z,5.80
2019-04-11T08:30:46.801Z,6.60
2019-04-11T08:33:18.253Z,5.90
2019-04-11T08:36:03.625Z,6.07
2019-04-11T08:38:34.284Z,6.20
2019-04-11T08:41:05.191Z,6.13
2019-04-11T08:43:35.249Z,5.67
2019-04-11T08:46:06.947Z,6.42
2019-04-11T08:48:37.320Z,6.17
2019-04-11T08:51:08.677Z,5.73
2019-04-11T08:53:45.770Z,6.30
2019-04-11T08:56:20.856Z,6.17
2019-04-11T08:59:33.585Z,6.03
2019-04-11T09:02:03.087Z,5.92
2019-04-11T09:04:50.300Z,6.07
2019-04-11T09:07:36.053Z,5.17
2019-04-11T09:10:24.042Z,5.97
2019-04-11T09:13:13.341Z,5.37
2019-04-11T09:15:59.880Z,5.03
2019-04-11T09:18:30.307Z,6.27
2019-04-11T09:21:06.349Z,5.90
2019-04-11T09:23:37.645Z,5.37
2019-04-11T09:26:25.568Z,4.92
2019-04-11T09:28:55.042Z,4.65
2019-04-11T09:31:31.794Z,5.27
2019-04-11T09:34:11.786Z,5.07
2019-04-11T09:36:45.210Z,4.73
2019-04-11T09:39:21.403Z,5.20
2019-04-11T09:41:57.597Z,4.23
2019-04-11T09:44:30.954Z,5.50
2019-04-11T09:47:11.206Z,5.50
2019-04-11T09:49:42.952Z,4.70
2019-04-11T09:52:14.286Z,4.92
2019-04-11T09:54:51.164Z,5.40
2019-04-11T09:57:28.853Z,4.83
2019-04-11T09:59:59.585Z,5.45
2019-04-11T10:02:48.398Z,4.73
2019-04-11T10:05:24.716Z,6.03
2019-04-11T10:08:02.094Z,4.67
2019-04-11T10:10:33.091Z,4.10
2019-04-11T10:13:20.541Z,5.20
2019-04-11T10:16:07.650Z,5.33
2019-04-11T10:18:47.367Z,5.00
2019-04-11T10:21:19.366Z,4.50
2019-04-11T10:23:57.450Z,4.27
2019-04-11T10:26:28.089Z,4.00
2019-04-11T10:29:15.084Z,4.20
2019-04-11T10:31:46.413Z,6.77
2019-04-11T10:34:23.706Z,4.90
2019-04-11T10:36:55.815Z,5.43
2019-04-11T10:39:35.590Z,4.00
2019-04-11T10:42:08.615Z,5.10
2019-04-11T10:44:42.306Z,5.47
2019-04-11T10:47:16.455Z,5.20
2019-04-11T10:50:03.277Z,5.00
2019-04-11T10:52:43.221Z,3.80
2019-04-11T10:55:17.726Z,4.77
2019-04-11T10:57:52.030Z,4.97
2019-04-11T11:00:25.872Z,4.53
2019-04-11T11:02:59.837Z,4.60
2019-04-11T11:05:38.385Z,4.10
2019-04-11T11:08:19.407Z,5.23
2019-04-11T11:10:50.086Z,4.53
2019-04-11T11:13:39.643Z,5.00
2019-04-11T11:16:13.947Z,5.15
2019-04-11T11:19:24.617Z,4.27
2019-04-11T11:21:35.193Z,6.20
2019-04-11T11:24:28.777Z,5.00
2019-04-11T11:27:01.488Z,4.67
2019-04-11T11:29:40.360Z,4.70
2019-04-11T11:32:16.839Z,5.10
2019-04-11T11:34:53.292Z,5.23
2019-04-11T11:37:33.255Z,4.93
2019-04-11T11:40:23.691Z,5.47
2019-04-11T11:42:58.773Z,6.20
2019-04-11T11:45:37.593Z,5.00
2019-04-11T11:48:20.767Z,7.33
2019-04-11T11:51:01.207Z,6.67
2019-04-11T11:53:46.922Z,8.83
2019-04-11T11:56:29.710Z,6.47
2019-04-11T11:59:02.757Z,6.20
2019-04-11T12:01:42.254Z,7.33
2019-04-11T12:04:14.796Z,5.07
2019-04-11T12:06:47.806Z,5.27
2019-04-11T12:09:36.277Z,5.30
2019-04-11T12:12:22.136Z,4.87
2019-04-11T12:14:59.371Z,5.87
2019-04-11T12:17:36.169Z,3.53
2019-04-11T12:20:11.678Z,5.33
2019-04-11T12:22:40.198Z,4.50
2019-04-11T12:25:29.205Z,4.97
2019-04-11T12:28:00.493Z,5.40
2019-04-11T12:30:32.733Z,4.07
2019-04-11T12:33:05.531Z,5.50
2019-04-11T12:35:36.054Z,4.67
2019-04-11T12:38:24.445Z,5.08
2019-04-11T12:41:10.549Z,5.00
2019-04-11T12:43:46.757Z,5.67
2019-04-11T12:46:33.671Z,5.43
2019-04-11T12:49:09.906Z,5.67
2019-04-11T12:51:56.252Z,4.60
2019-04-11T12:54:26.665Z,5.97
2019-04-11T12:57:13.251Z,5.10
2019-04-11T12:59:42.157Z,5.10
2019-04-11T13:02:24.415Z,5.50
2019-04-11T13:04:59.568Z,5.33
2019-04-11T13:07:30.226Z,5.13
2019-04-11T13:10:00.549Z,5.13
2019-04-11T13:12:47.209Z,4.50
2019-04-11T13:15:20.260Z,4.53
2019-04-11T13:17:56.481Z,5.17
2019-04-11T13:20:29.860Z,4.97
2019-04-11T13:23:16.352Z,5.67
2019-04-11T13:26:06.176Z,5.07
2019-04-11T13:28:35.063Z,5.63
2019-04-11T13:31:21.616Z,4.67
2019-04-11T13:33:52.405Z,4.80
2019-04-11T13:36:32.261Z,4.55
2019-04-11T13:39:03.103Z,4.90
2019-04-11T13:41:42.654Z,5.20
2019-04-11T13:44:13.003Z,5.35
2019-04-11T13:46:44.116Z,5.80
2019-04-11T13:49:14.581Z,4.87
2019-04-11T13:51:59.726Z,5.80
2019-04-11T13:54:32.884Z,5.30
2019-04-11T13:57:19.449Z,5.40
2019-04-11T14:00:05.943Z,4.90
2019-04-11T14:02:50.421Z,5.60
2019-04-11T14:05:11.345Z,4.33
2019-04-11T14:07:41.690Z,5.30
2019-04-11T14:10:18.157Z,5.47
2019-04-11T14:12:48.039Z,5.27
2019-04-11T14:15:21.095Z,5.28
2019-04-11T14:17:51.430Z,4.77
2019-04-11T14:20:29.604Z,5.40
2019-04-11T14:23:05.857Z,5.20
2019-04-11T14:25:51.233Z,5.30
2019-04-11T14:28:27.496Z,4.93
2019-04-11T14:31:00.559Z,5.33
2019-04-11T14:33:30.874Z,4.33
2019-04-11T14:36:10.238Z,4.67
2019-04-11T14:38:45.848Z,5.50
2019-04-11T14:41:18.481Z,5.00
2019-04-11T14:43:48.781Z,5.07
2019-04-11T14:46:19.929Z,5.40
2019-04-11T14:48:50.254Z,5.93
2019-04-11T14:51:23.877Z,5.53
2019-04-11T14:54:11.700Z,5.30
2019-04-11T14:56:57.837Z,5.00
2019-04-11T14:59:43.363Z,5.80
2019-04-11T15:02:22.640Z,4.50
2019-04-11T15:05:01.910Z,5.40
2019-04-11T15:07:32.274Z,5.53
2019-04-11T15:10:17.874Z,5.43
2019-04-11T15:12:48.090Z,4.67
2019-04-11T15:15:28.601Z,4.77
2019-04-11T15:20:59.291Z,5.40
2019-04-11T15:23:32.814Z,5.10
2019-04-11T15:26:03.256Z,6.97
2019-04-11T15:28:36.889Z,5.73
2019-04-11T15:31:18.482Z,6.20
2019-04-11T15:34:08.571Z,5.60
2019-04-11T15:36:39.895Z,4.73
2019-04-11T15:39:44.052Z,5.40
2019-04-11T15:42:09.237Z,5.07
2019-04-11T15:44:53.552Z,4.90
2019-04-11T15:47:23.959Z,4.37
2019-04-11T15:50:12.369Z,6.20
2019-04-11T15:52:44.218Z,5.70
2019-04-11T15:55:31.197Z,5.13
2019-04-11T15:58:01.921Z,4.73
2019-04-11T16:00:50.515Z,6.37
2019-04-11T16:03:19.343Z,3.93
2019-04-11T16:06:05.156Z,5.70
2019-04-11T16:08:38.888Z,4.63
2019-04-11T16:11:16.644Z,4.70
2019-04-11T16:13:56.037Z,4.17
2019-04-11T16:16:29.282Z,4.40
2019-04-11T16:19:02.695Z,4.50
2019-04-11T16:21:49.112Z,4.70
2019-04-11T16:24:22.277Z,4.12
2019-04-11T16:27:00.530Z,4.30
2019-04-11T16:29:30.867Z,4.60
2019-04-11T16:32:06.920Z,4.20
2019-04-11T16:34:47.924Z,4.60
2019-04-11T16:37:08.115Z,4.00
2019-04-11T16:39:55.126Z,4.00
2019-04-11T16:42:26.223Z,4.20
2019-04-11T16:45:02.357Z,3.80
2019-04-11T16:47:47.561Z,4.27
2019-04-11T16:50:16.483Z,3.70
2019-04-11T16:52:45.208Z,5.07
2019-04-11T16:55:13.971Z,5.22
2019-04-11T16:57:44.326Z,4.97
2019-04-11T17:00:13.358Z,5.30
2019-04-11T17:02:42.170Z,5.60
2019-04-11T17:05:11.169Z,6.22
2019-04-11T17:07:44.250Z,5.20
2019-04-11T17:10:14.734Z,4.20
2019-04-11T17:12:43.458Z,4.80
2019-04-11T17:15:12.239Z,6.10
2019-04-11T17:17:40.994Z,6.67
2019-04-11T17:20:09.825Z,5.50
2019-04-11T17:22:38.563Z,4.83
2019-04-11T17:25:07.340Z,4.80
2019-04-11T17:27:36.070Z,4.13
2019-04-11T17:30:06.705Z,4.07
2019-04-11T17:32:36.232Z,4.13
2019-04-11T17:35:06.659Z,3.60
2019-04-11T17:37:35.445Z,3.70
2019-04-11T17:40:07.050Z,3.37
2019-04-11T17:42:36.980Z,3.27
2019-04-11T17:45:07.760Z,4.00
2019-04-11T17:47:36.518Z,5.23
2019-04-11T17:50:06.756Z,4.50
2019-04-11T17:52:35.580Z,8.17
2019-04-11T17:55:05.821Z,7.80
2019-04-11T17:57:34.586Z,9.90
2019-04-11T18:00:04.882Z,5.00
2019-04-11T18:02:33.622Z,5.17
2019-04-11T18:05:02.379Z,4.40
2019-04-11T18:07:31.168Z,5.50
2019-04-11T18:10:00.043Z,4.65
2019-04-11T18:12:28.807Z,4.77
2019-04-11T18:14:59.848Z,5.17
2019-04-11T18:17:28.050Z,5.07
2019-04-11T18:19:56.858Z,5.22
2019-04-11T18:22:25.802Z,3.73
2019-04-11T18:24:55.381Z,4.90
2019-04-11T18:27:24.226Z,4.10
2019-04-11T18:29:53.613Z,5.67
2019-04-11T18:32:22.462Z,6.00
2019-04-11T18:34:51.198Z,5.90
2019-04-11T18:37:19.967Z,6.85
2019-04-11T18:39:48.809Z,5.60
2019-04-11T18:42:17.588Z,7.70
2019-04-11T18:44:46.421Z,12.53
2019-04-11T18:47:15.262Z,4.40
2019-04-11T18:49:44.230Z,5.20
2019-04-11T18:52:19.573Z,4.70
2019-04-11T18:54:43.820Z,3.97
2019-04-11T18:57:14.086Z,4.43
2019-04-11T18:59:43.864Z,4.30
2019-04-11T19:02:12.844Z,3.40
2019-04-11T19:04:42.212Z,3.20
2019-04-11T19:07:13.866Z,3.27
2019-04-11T19:09:43.883Z,4.20
2019-04-11T19:12:15.878Z,5.58
2019-04-11T19:14:46.003Z,5.83
2019-04-11T19:17:30.611Z,6.40
2019-04-11T19:20:00.215Z,5.35
2019-04-11T19:22:37.601Z,5.10
2019-04-11T19:24:59.593Z,4.53
2019-04-11T19:27:28.878Z,4.90
2019-04-11T19:29:57.739Z,3.57
2019-04-11T19:32:26.493Z,3.60
2019-04-11T19:34:55.909Z,2.93
2019-04-11T19:37:31.159Z,3.17
2019-04-11T19:40:00.070Z,3.67
2019-04-11T19:42:29.840Z,3.67
2019-04-11T19:44:58.990Z,3.17
2019-04-11T19:47:29.303Z,3.00
2019-04-11T19:50:03.343Z,1.80
2019-04-11T19:52:45.152Z,3.00
2019-04-11T19:55:19.359Z,3.17
2019-04-11T19:57:48.375Z,3.50
2019-04-11T20:00:21.374Z,3.27
2019-04-11T20:02:47.681Z,2.57
2019-04-11T20:05:16.447Z,3.40
2019-04-11T20:07:47.124Z,2.90
2019-04-11T20:10:16.125Z,2.95
2019-04-11T20:12:45.625Z,3.60
2019-04-11T20:15:16.143Z,3.30
2019-04-11T20:17:51.076Z,3.50
2019-04-11T20:20:16.040Z,3.72
2019-04-11T20:23:05.107Z,3.50
2019-04-11T20:25:46.269Z,2.63
2019-04-11T20:28:16.460Z,2.87
2019-04-11T20:30:49.432Z,3.17
2019-04-11T20:33:26.879Z,2.80
2019-04-11T20:35:59.354Z,3.30
2019-04-11T20:38:28.657Z,2.50
2019-04-11T20:40:57.389Z,2.20
2019-04-11T20:43:27.800Z,2.83
2019-04-11T20:45:58.669Z,2.43
2019-04-11T20:48:27.702Z,2.50
2019-04-11T20:50:57.136Z,3.53
2019-04-11T20:53:25.976Z,3.73
2019-04-11T20:55:54.719Z,3.22
2019-04-11T20:58:27.517Z,3.40
2019-04-11T21:00:56.039Z,3.50
2019-04-11T21:03:24.996Z,3.50
2019-04-11T21:05:55.447Z,3.10
2019-04-11T21:08:25.724Z,3.20
2019-04-11T21:10:56.587Z,2.80
2019-04-11T21:13:26.795Z,3.27
2019-04-11T21:15:55.911Z,3.52
2019-04-11T21:18:25.835Z,2.50
2019-04-11T21:20:58.196Z,3.17
2019-04-11T21:23:29.467Z,2.60
2019-04-11T21:25:59.066Z,3.80
2019-04-11T21:28:30.317Z,3.37
2019-04-11T21:31:00.120Z,3.10
2019-04-11T21:33:29.528Z,2.47
2019-04-11T21:35:58.330Z,2.67
2019-04-11T21:38:28.140Z,2.50
2019-04-11T21:40:57.785Z,2.67
2019-04-11T21:43:26.523Z,3.17
2019-04-11T21:45:58.689Z,2.63
2019-04-11T21:48:27.619Z,2.47
2019-04-11T21:50:56.457Z,3.13
2019-04-11T21:53:36.059Z,3.30
2019-04-11T21:55:56.114Z,3.03
2019-04-11T21:58:27.412Z,3.85
2019-04-11T22:01:02.151Z,3.13
2019-04-11T22:03:31.918Z,2.60
2019-04-11T22:06:00.689Z,2.77
2019-04-11T22:08:29.459Z,2.83
2019-04-11T22:10:58.213Z,3.23
2019-04-11T22:13:26.947Z,3.20
2019-04-11T22:15:55.730Z,2.90
2019-04-11T22:18:24.476Z,2.80
2019-04-11T22:20:53.231Z,3.47
2019-04-11T22:23:21.964Z,3.12
2019-04-11T22:25:50.801Z,3.20
2019-04-11T22:28:21.973Z,2.95
2019-04-11T22:30:50.102Z,2.70
2019-04-11T22:33:29.206Z,3.25
2019-04-11T22:35:59.320Z,2.90
2019-04-11T22:38:30.535Z,3.23
2019-04-11T22:41:01.503Z,2.83
2019-04-11T22:43:29.443Z,3.15
2019-04-11T22:45:58.173Z,3.30
2019-04-11T22:48:26.909Z,2.63
2019-04-11T22:50:55.708Z,2.80
2019-04-11T22:53:24.473Z,3.00
2019-04-11T22:55:53.225Z,2.60
2019-04-11T22:58:21.980Z,3.30
2019-04-11T23:00:51.760Z,3.00
2019-04-11T23:03:22.944Z,2.63
2019-04-11T23:05:53.969Z,3.33
2019-04-11T23:08:22.744Z,3.60
2019-04-11T23:10:51.570Z,3.00
2019-04-11T23:13:20.341Z,3.07
2019-04-11T23:15:49.137Z,2.85
2019-04-11T23:18:17.989Z,2.93
2019-04-11T23:20:46.715Z,2.47
2019-04-11T23:23:15.460Z,3.10
2019-04-11T23:25:44.244Z,3.17
2019-04-11T23:28:15.614Z,3.20
2019-04-11T23:30:43.435Z,2.47
2019-04-11T23:33:12.256Z,2.40
2019-04-11T23:35:41.016Z,2.50
2019-04-11T23:38:09.929Z,2.45
2019-04-11T23:40:38.692Z,2.90
2019-04-11T23:43:07.501Z,2.17
2019-04-11T23:45:36.262Z,2.53
2019-04-11T23:48:05.239Z,2.53
2019-04-11T23:50:34.043Z,2.70
2019-04-11T23:53:02.777Z,2.33
2019-04-11T23:55:31.520Z,2.60
2019-04-11T23:58:01.725Z,2.07
